createdAt,value
2023-02-02T00:00:00.968Z,98.26
2023-02-02T00:03:03.883Z,95.78
2023-02-02T00:06:07.296Z,94.26
2023-02-02T00:09:11.603Z,92.74
2023-02-02T00:12:16.254Z,93.48
2023-02-02T00:15:20.588Z,94.44
2023-02-02T00:18:24.207Z,93.15
2023-02-02T00:21:26.813Z,91.63
2023-02-02T00:24:29.481Z,90.27
2023-02-02T00:27:31.705Z,89.01
2023-02-02T00:30:34.647Z,89.34
2023-02-02T00:33:36.885Z,89.39
2023-02-02T00:36:40.124Z,89.36
2023-02-02T00:39:42.582Z,89.13
2023-02-02T00:42:49.175Z,88.25
2023-02-02T00:45:51.935Z,86.25
2023-02-02T00:48:54.840Z,85.44
2023-02-02T00:51:57.083Z,83.05
2023-02-02T00:55:00.642Z,83.42
2023-02-02T00:58:04.719Z,82.90
2023-02-02T01:01:16.201Z,84.21
2023-02-02T01:04:20.486Z,84.25
2023-02-02T01:07:23.157Z,84.55
2023-02-02T01:10:26.066Z,84.79
2023-02-02T01:13:29.554Z,85.71
2023-02-02T01:16:32.195Z,85.62
2023-02-02T01:19:36.487Z,86.04
2023-02-02T01:22:38.910Z,85.93
2023-02-02T01:25:41.639Z,87.23
2023-02-02T01:28:44.724Z,89.15
2023-02-02T01:31:47.859Z,90.51
2023-02-02T01:34:50.253Z,91.03
2023-02-02T01:37:53.174Z,91.13
2023-02-02T01:40:57.213Z,91.19
2023-02-02T01:44:06.503Z,91.18
2023-02-02T01:47:09.018Z,92.64
2023-02-02T01:50:14.949Z,92.62
2023-02-02T01:53:19.837Z,92.68
2023-02-02T01:56:37.470Z,92.75
2023-02-02T01:59:40.717Z,91.97
2023-02-02T02:02:48.226Z,91.39
2023-02-02T02:06:11.522Z,90.05
2023-02-02T02:09:14.565Z,90.61
2023-02-02T02:12:17.643Z,90.78
2023-02-02T02:15:40.473Z,90.39
2023-02-02T02:18:55.935Z,90.47
2023-02-02T02:22:23.403Z,91.26
2023-02-02T02:26:05.459Z,90.63
2023-02-02T02:29:14.875Z,91.67
2023-02-02T02:32:41.677Z,93.80
2023-02-02T02:36:10.412Z,94.10
2023-02-02T02:39:26.173Z,95.18
2023-02-02T02:42:36.298Z,95.80
2023-02-02T02:45:41.054Z,95.51
2023-02-02T02:48:45.579Z,95.73
2023-02-02T02:51:50.001Z,95.61
2023-02-02T02:54:55.721Z,96.72
2023-02-02T02:58:07.314Z,96.20
2023-02-02T03:01:21.100Z,97.43
2023-02-02T03:04:33.651Z,97.15
2023-02-02T03:08:01.447Z,97.17
2023-02-02T03:11:06.832Z,97.94
2023-02-02T03:14:09.773Z,98.83
2023-02-02T03:17:12.053Z,98.19
2023-02-02T03:20:15.106Z,97.81
2023-02-02T03:23:17.391Z,97.62
2023-02-02T03:26:20.361Z,97.79
2023-02-02T03:29:22.752Z,98.89
2023-02-02T03:32:25.626Z,97.75
2023-02-02T03:35:31.106Z,97.00
2023-02-02T03:38:34.112Z,97.21
2023-02-02T03:41:36.375Z,97.98
2023-02-02T03:44:38.926Z,97.44
2023-02-02T03:47:41.091Z,97.94
2023-02-02T03:50:43.666Z,97.67
2023-02-02T03:53:48.621Z,97.73
2023-02-02T03:56:51.436Z,98.12
2023-02-02T03:59:53.726Z,97.84
2023-02-02T04:02:56.384Z,98.17
2023-02-02T04:05:59.092Z,97.96
2023-02-02T04:09:01.770Z,98.41
2023-02-02T04:12:04.867Z,99.04
2023-02-02T04:15:08.061Z,98.30
2023-02-02T04:18:11.134Z,97.97
2023-02-02T04:21:13.621Z,97.94
2023-02-02T04:24:16.347Z,97.36
2023-02-02T04:27:18.937Z,97.80
2023-02-02T04:30:21.559Z,97.92
2023-02-02T04:33:25.476Z,98.63
2023-02-02T04:36:28.471Z,98.20
2023-02-02T04:39:31.198Z,97.65
2023-02-02T04:42:35.068Z,97.26
2023-02-02T04:45:37.985Z,97.20
2023-02-02T04:48:42.295Z,97.40
2023-02-02T04:51:44.474Z,97.07
2023-02-02T04:54:48.878Z,98.27
2023-02-02T04:57:52.393Z,97.95
2023-02-02T05:00:55.322Z,96.98
2023-02-02T05:03:58.263Z,96.98
2023-02-02T05:07:01.127Z,96.92
2023-02-02T05:10:04.920Z,96.81
2023-02-02T05:13:08.243Z,97.24
2023-02-02T05:16:10.843Z,97.04
2023-02-02T05:19:17.801Z,97.45
2023-02-02T05:22:20.010Z,97.27
2023-02-02T05:25:22.794Z,97.82
2023-02-02T05:28:25.795Z,97.12
2023-02-02T05:31:28.743Z,96.83
2023-02-02T05:34:30.957Z,96.69
2023-02-02T05:37:33.576Z,96.28
2023-02-02T05:40:36.092Z,96.59
2023-02-02T05:43:38.760Z,96.04
2023-02-02T05:46:41.744Z,96.05
2023-02-02T05:49:44.404Z,95.73
2023-02-02T05:52:47.163Z,95.20
2023-02-02T05:55:49.741Z,95.42
2023-02-02T05:58:52.324Z,95.25
2023-02-02T06:01:57.859Z,94.96
2023-02-02T06:05:00.585Z,94.12
2023-02-02T06:08:02.975Z,93.73
2023-02-02T06:11:13.741Z,93.49
2023-02-02T06:14:16.179Z,93.20
2023-02-02T06:17:18.833Z,93.05
2023-02-02T06:20:22.469Z,93.02
2023-02-02T06:23:26.111Z,92.97
2023-02-02T06:26:30.331Z,92.96
2023-02-02T06:29:33.334Z,92.68
2023-02-02T06:32:36.113Z,92.56
2023-02-02T06:35:39.211Z,92.44
2023-02-02T06:38:41.560Z,91.42
2023-02-02T06:41:46.722Z,91.18
2023-02-02T06:44:49.597Z,91.15
2023-02-02T06:47:52.587Z,90.74
2023-02-02T06:50:58.456Z,90.53
2023-02-02T06:54:01.308Z,90.41
2023-02-02T06:57:03.700Z,89.38
2023-02-02T07:00:07.105Z,85.93
2023-02-02T07:03:09.583Z,82.17
2023-02-02T07:06:30.332Z,80.58
2023-02-02T07:09:34.178Z,80.90
2023-02-02T07:12:36.884Z,81.85
2023-02-02T07:15:40.510Z,82.43
2023-02-02T07:18:44.041Z,82.99
2023-02-02T07:21:46.322Z,83.82
2023-02-02T07:24:48.935Z,83.91
2023-02-02T07:27:55.075Z,83.65
2023-02-02T07:30:58.262Z,83.67
2023-02-02T07:34:00.875Z,82.42
2023-02-02T07:37:03.404Z,82.62
2023-02-02T07:40:06.265Z,82.79
2023-02-02T07:43:09.593Z,81.36
2023-02-02T07:46:14.497Z,81.42
2023-02-02T07:49:18.730Z,80.79
2023-02-02T07:52:20.936Z,80.19
2023-02-02T07:55:23.419Z,79.27
2023-02-02T07:58:25.989Z,79.19
2023-02-02T08:01:29.013Z,78.91
2023-02-02T08:04:34.282Z,78.55
2023-02-02T08:07:36.938Z,78.62
2023-02-02T08:10:39.580Z,77.88
2023-02-02T08:13:43.066Z,77.86
2023-02-02T08:16:45.763Z,76.37
2023-02-02T08:19:48.572Z,76.15
2023-02-02T08:22:51.395Z,75.50
2023-02-02T08:25:54.281Z,74.61
2023-02-02T08:29:00.168Z,73.47
2023-02-02T08:32:03.140Z,73.82
2023-02-02T08:35:06.324Z,72.85
2023-02-02T08:38:08.746Z,71.75
2023-02-02T08:41:15.714Z,69.97
2023-02-02T08:44:18.342Z,69.68
2023-02-02T08:47:22.569Z,68.97
2023-02-02T08:50:25.269Z,70.61
2023-02-02T08:53:28.735Z,68.43
2023-02-02T08:56:31.047Z,68.08
2023-02-02T08:59:34.085Z,68.41
2023-02-02T09:02:36.543Z,67.40
2023-02-02T09:05:39.835Z,67.82
2023-02-02T09:08:42.430Z,68.27
2023-02-02T09:11:45.973Z,67.58
2023-02-02T09:14:48.454Z,67.72
2023-02-02T09:17:52.126Z,67.16
2023-02-02T09:20:55.169Z,67.07
2023-02-02T09:23:59.339Z,65.74
2023-02-02T09:27:01.962Z,66.70
2023-02-02T09:30:05.594Z,66.42
2023-02-02T09:33:09.716Z,67.31
2023-02-02T09:36:18.389Z,67.52
2023-02-02T09:39:20.766Z,67.47
2023-02-02T09:42:42.580Z,65.72
2023-02-02T09:46:01.539Z,65.83
2023-02-02T09:49:12.540Z,64.28
2023-02-02T09:52:21.474Z,63.96
2023-02-02T09:55:24.289Z,63.58
2023-02-02T09:58:52.041Z,62.46
2023-02-02T10:02:01.202Z,61.57
2023-02-02T10:05:25.158Z,62.20
2023-02-02T10:08:42.094Z,61.01
2023-02-02T10:11:59.781Z,59.08
2023-02-02T10:15:33.548Z,59.87
2023-02-02T10:18:43.043Z,59.63
2023-02-02T10:22:05.256Z,61.14
2023-02-02T10:25:13.235Z,59.43
2023-02-02T10:28:28.580Z,60.83
2023-02-02T10:31:35.484Z,58.84
2023-02-02T10:34:41.925Z,60.59
2023-02-02T10:37:54.228Z,60.17
2023-02-02T10:41:06.115Z,60.44
2023-02-02T10:44:24.868Z,60.64
2023-02-02T10:47:32.106Z,60.29
2023-02-02T10:50:35.579Z,60.88
2023-02-02T10:53:38.759Z,61.78
2023-02-02T10:56:52.728Z,61.30
2023-02-02T11:00:15.504Z,61.52
2023-02-02T11:03:20.731Z,60.28
2023-02-02T11:06:41.812Z,60.83
2023-02-02T11:09:44.468Z,60.04
2023-02-02T11:12:53.158Z,61.28
2023-02-02T11:16:20.793Z,60.80
2023-02-02T11:19:29.764Z,60.20
2023-02-02T11:22:37.177Z,60.02
2023-02-02T11:25:40.662Z,60.99
2023-02-02T11:28:43.644Z,60.03
2023-02-02T11:31:46.123Z,59.76
2023-02-02T11:34:48.831Z,60.78
2023-02-02T11:38:14.152Z,60.08
2023-02-02T11:44:57.525Z,60.61
2023-02-02T11:48:05.247Z,59.86
2023-02-02T11:51:19.880Z,60.29
2023-02-02T11:54:32.996Z,59.41
2023-02-02T11:57:35.417Z,58.93
2023-02-02T12:00:54.826Z,59.25
2023-02-02T12:03:59.412Z,58.68
2023-02-02T12:07:08.076Z,59.87
2023-02-02T12:10:42.252Z,60.72
2023-02-02T12:14:11.949Z,60.93
2023-02-02T12:17:42.998Z,61.33
2023-02-02T12:21:04.263Z,60.33
2023-02-02T12:24:32.774Z,60.68
2023-02-02T12:28:00.836Z,61.00
2023-02-02T12:31:16.231Z,60.94
2023-02-02T12:34:40.778Z,61.12
2023-02-02T12:37:49.663Z,60.87
2023-02-02T12:41:31.481Z,61.47
2023-02-02T12:45:19.063Z,62.06
2023-02-02T12:48:34.287Z,61.59
2023-02-02T13:53:55.112Z,62.55
2023-02-02T13:57:16.623Z,63.69
2023-02-02T14:00:24.720Z,62.52
2023-02-02T14:03:51.529Z,62.32
2023-02-02T14:10:07.324Z,61.72
2023-02-02T14:13:32.568Z,61.84
2023-02-02T14:16:35.384Z,61.65
2023-02-02T14:19:44.119Z,61.53
2023-02-02T14:22:50.859Z,61.64
2023-02-02T14:26:08.725Z,62.18
2023-02-02T14:29:29.467Z,61.77
2023-02-02T14:32:40.969Z,62.04
2023-02-02T14:35:55.024Z,62.28
2023-02-02T14:39:16.108Z,62.82
2023-02-02T14:42:40.475Z,63.07
2023-02-02T14:45:44.795Z,62.70
2023-02-02T14:49:07.530Z,63.57
2023-02-02T14:52:22.909Z,62.74
2023-02-02T14:55:27.794Z,62.07
2023-02-02T14:58:34.238Z,63.22
2023-02-02T15:01:38.853Z,63.67
2023-02-02T15:04:41.587Z,63.54
2023-02-02T15:07:52.974Z,62.47
2023-02-02T15:10:55.212Z,63.32
2023-02-02T15:14:08.933Z,63.50
2023-02-02T15:17:41.815Z,63.67
2023-02-02T15:20:50.834Z,64.12
2023-02-02T15:23:54.184Z,64.45
2023-02-02T15:26:59.978Z,64.85
2023-02-02T15:30:07.049Z,65.55
2023-02-02T15:33:24.266Z,65.06
2023-02-02T15:36:37.481Z,66.06
2023-02-02T15:39:45.640Z,67.03
2023-02-02T15:42:54.776Z,67.81
2023-02-02T15:46:12.801Z,68.53
2023-02-02T15:49:34.759Z,69.37
2023-02-02T15:52:46.942Z,69.79
2023-02-02T15:55:49.859Z,70.65
2023-02-02T15:58:54.475Z,71.16
2023-02-02T16:02:09.699Z,70.84
2023-02-02T16:05:31.165Z,71.44
2023-02-02T16:08:36.204Z,71.73
2023-02-02T16:11:42.230Z,71.29
2023-02-02T16:14:49.892Z,72.44
2023-02-02T16:18:04.907Z,72.67
2023-02-02T16:21:15.125Z,73.07
2023-02-02T16:24:24.277Z,72.48
2023-02-02T16:27:28.949Z,72.95
2023-02-02T16:30:35.610Z,72.73
2023-02-02T16:33:43.461Z,72.93
2023-02-02T16:37:04.981Z,73.04
2023-02-02T16:40:31.263Z,72.93
2023-02-02T16:43:35.687Z,73.04
2023-02-02T16:46:48.460Z,72.82
2023-02-02T16:49:55.490Z,73.24
2023-02-02T16:53:03.923Z,73.57
2023-02-02T16:56:08.805Z,73.36
2023-02-02T16:59:20.185Z,73.39
2023-02-02T17:02:32.012Z,73.33
2023-02-02T17:05:54.075Z,73.53
2023-02-02T17:08:56.945Z,73.27
2023-02-02T17:12:34.772Z,73.76
2023-02-02T17:15:38.493Z,74.47
2023-02-02T17:18:40.817Z,74.44
2023-02-02T17:21:43.478Z,74.83
2023-02-02T17:24:47.950Z,74.89
2023-02-02T17:27:51.055Z,75.53
2023-02-02T17:31:00.971Z,75.06
2023-02-02T17:34:06.589Z,75.70
2023-02-02T17:37:09.070Z,75.95
2023-02-02T17:40:16.185Z,76.11
2023-02-02T17:43:18.732Z,75.85
2023-02-02T17:46:21.413Z,76.27
2023-02-02T17:49:24.433Z,75.93
2023-02-02T17:52:27.505Z,75.46
2023-02-02T17:55:32.836Z,75.56
2023-02-02T17:58:35.775Z,75.89
2023-02-02T18:01:41.463Z,75.91
2023-02-02T18:04:45.689Z,76.33
2023-02-02T18:07:48.218Z,76.98
2023-02-02T18:10:50.863Z,75.85
2023-02-02T18:13:53.189Z,76.07
2023-02-02T18:16:56.167Z,76.29
2023-02-02T18:19:58.727Z,76.41
2023-02-02T18:23:01.800Z,76.15
2023-02-02T18:26:11.518Z,76.84
2023-02-02T18:29:14.277Z,76.81
2023-02-02T18:32:17.773Z,77.14
2023-02-02T18:35:20.573Z,77.23
2023-02-02T18:38:22.902Z,77.58
2023-02-02T18:41:25.528Z,77.88
2023-02-02T18:44:28.078Z,78.38
2023-02-02T18:47:31.143Z,78.45
2023-02-02T18:50:33.673Z,77.71
2023-02-02T18:53:36.655Z,77.76
2023-02-02T18:56:39.092Z,77.99
2023-02-02T18:59:42.067Z,77.64
2023-02-02T19:02:44.257Z,78.16
2023-02-02T19:06:05.950Z,78.39
2023-02-02T19:09:08.966Z,78.88
2023-02-02T19:12:14.378Z,79.43
2023-02-02T19:15:17.120Z,79.16
2023-02-02T19:18:22.780Z,79.43
2023-02-02T19:21:29.153Z,79.48
2023-02-02T19:24:40.837Z,79.27
2023-02-02T19:27:43.091Z,79.47
2023-02-02T19:30:45.662Z,80.12
2023-02-02T19:33:50.459Z,80.28
2023-02-02T19:36:52.986Z,80.37
2023-02-02T19:40:23.222Z,80.02
2023-02-02T19:43:29.919Z,80.07
2023-02-02T19:46:32.791Z,80.40
2023-02-02T19:49:36.941Z,80.73
2023-02-02T19:52:39.246Z,80.89
2023-02-02T19:55:44.249Z,80.52
2023-02-02T19:58:48.026Z,80.50
2023-02-02T20:01:51.090Z,81.12
2023-02-02T20:05:03.690Z,80.92
2023-02-02T20:08:35.449Z,81.83
2023-02-02T20:11:43.992Z,82.28
2023-02-02T20:14:48.111Z,82.54
2023-02-02T20:17:51.600Z,82.24
2023-02-02T20:20:57.051Z,82.64
2023-02-02T20:23:59.896Z,82.70
2023-02-02T20:27:16.721Z,82.63
2023-02-02T20:30:24.591Z,82.47
2023-02-02T20:33:27.461Z,82.34
2023-02-02T20:36:40.267Z,82.05
2023-02-02T20:39:47.834Z,82.43
2023-02-02T20:42:50.776Z,82.88
2023-02-02T20:45:53.168Z,83.34
2023-02-02T20:48:55.983Z,83.59
2023-02-02T20:52:01.765Z,83.80
2023-02-02T20:55:04.812Z,83.82
2023-02-02T20:58:07.219Z,83.77
2023-02-02T21:01:09.827Z,83.75
2023-02-02T21:04:12.597Z,83.60
2023-02-02T21:07:17.252Z,84.06
2023-02-02T21:10:19.682Z,84.32
2023-02-02T21:13:22.410Z,84.49
2023-02-02T21:16:25.283Z,84.07
2023-02-02T21:19:28.140Z,84.00
2023-02-02T21:22:30.433Z,84.63
2023-02-02T21:25:33.008Z,84.17
2023-02-02T21:28:35.076Z,84.61
2023-02-02T21:31:39.845Z,84.74
2023-02-02T21:34:42.367Z,84.95
2023-02-02T21:37:47.184Z,84.97
2023-02-02T21:40:51.542Z,85.50
2023-02-02T21:43:54.267Z,85.57
2023-02-02T21:46:56.499Z,85.78
2023-02-02T21:50:11.760Z,85.28
2023-02-02T21:53:17.122Z,85.33
2023-02-02T21:56:34.508Z,85.71
2023-02-02T21:59:36.921Z,85.21
2023-02-02T22:02:45.006Z,84.85
2023-02-02T22:05:47.790Z,84.94
2023-02-02T22:08:51.125Z,85.41
2023-02-02T22:12:02.034Z,85.53
2023-02-02T22:15:18.291Z,85.68
2023-02-02T22:18:23.463Z,86.22
2023-02-02T22:21:25.868Z,85.49
2023-02-02T22:24:28.488Z,85.30
2023-02-02T22:27:58.315Z,85.33
2023-02-02T22:31:01.030Z,85.76
2023-02-02T22:34:03.271Z,85.75
2023-02-02T22:37:05.937Z,85.48
2023-02-02T22:40:09.184Z,85.99
2023-02-02T22:43:13.519Z,85.72
2023-02-02T22:46:15.907Z,85.81
2023-02-02T22:49:18.844Z,85.77
2023-02-02T22:52:21.244Z,85.30
2023-02-02T22:55:24.213Z,84.84
2023-02-02T22:58:26.535Z,85.37
2023-02-02T23:01:29.051Z,84.83
2023-02-02T23:04:31.590Z,84.16
2023-02-02T23:07:34.498Z,83.00
2023-02-02T23:10:37.008Z,81.94
2023-02-02T23:13:39.603Z,81.29
2023-02-02T23:16:41.906Z,80.92
2023-02-02T23:19:44.628Z,80.34
2023-02-02T23:22:47.179Z,80.20
2023-02-02T23:25:49.764Z,79.97
2023-02-02T23:28:52.382Z,79.96
2023-02-02T23:31:55.385Z,79.86
2023-02-02T23:34:57.709Z,79.11
2023-02-02T23:38:00.425Z,79.52
2023-02-02T23:41:02.757Z,80.10
2023-02-02T23:44:05.652Z,80.25
2023-02-02T23:47:09.042Z,80.54
2023-02-02T23:50:12.253Z,80.87
2023-02-02T23:53:15.032Z,80.86
2023-02-02T23:56:18.056Z,81.29
2023-02-02T23:59:20.367Z,80.48
